Time;durP1;ratioP1;P1;durP2;ratioP2;P2;SDS_P1;SDS_P2;PMS_P1;PMS_P2;Temp;Humidity;BMP_temperature;BMP_pressure;BME280_temperature;BME280_humidity;BME280_pressure;Samples;Min_cycle;Max_cycle;Signal;HPM_P1;HPM_P2
2023/01/13 00:00:25;330063.00;1.10;569.59;0.00;0.00;0.62;;;;;14.30;1.00;;;;;;2268193;61;1432;-87
2023/01/13 00:03:08;414479.00;1.38;714.70;0.00;0.00;0.62;;;;;14.30;1.00;;;;;;2265829;61;1695;-88
2023/01/13 00:05:37;434018.00;1.45;748.30;0.00;0.00;0.62;;;;;14.30;1.00;;;;;;2264131;61;1000;-87
2023/01/13 00:10:40;784677.00;2.62;1354.41;0.00;0.00;0.62;;;;;14.30;1.00;;;;;;2265814;61;1345;-88
2023/01/13 00:15:38;579442.00;1.93;998.74;0.00;0.00;0.62;;;;;14.40;1.00;;;;;;2265828;61;1413;-87
2023/01/13 00:18:05;282929.00;0.94;488.57;0.00;0.00;0.62;;;;;14.50;1.00;;;;;;2264023;61;1076;-89
2023/01/13 00:20:32;238030.00;0.79;411.36;0.00;0.00;0.62;;;;;14.60;1.00;;;;;;2278911;40;1253800;-87
2023/01/13 00:23:03;473808.00;1.58;816.74;0.00;0.00;0.62;;;;;14.60;1.00;;;;;;2265656;61;1355;-87
2023/01/13 00:25:30;302475.00;1.01;522.17;0.00;0.00;0.62;;;;;14.40;1.00;;;;;;2264393;61;1108;-88
2023/01/13 00:27:57;305471.00;1.02;527.32;0.00;0.00;0.62;;;;;14.60;1.00;;;;;;2264309;61;1336;-88
2023/01/13 00:30:24;222531.00;0.74;384.70;0.00;0.00;0.62;;;;;14.90;1.00;;;;;;2264325;61;995;-88
2023/01/13 00:32:52;150546.00;0.50;260.75;0.00;0.00;0.62;;;;;15.00;1.00;;;;;;2281227;40;3556;-87
2023/01/13 00:35:19;89871.00;0.30;156.08;0.00;0.00;0.62;;;;;14.90;1.00;;;;;;2268920;61;1168;-86
2023/01/13 00:37:46;240550.00;0.80;415.70;26653.00;0.09;46.79;;;;;14.60;1.00;;;;;;2268987;61;875;-87
2023/01/13 00:40:14;240999.00;0.80;416.47;0.00;0.00;0.62;;;;;14.20;1.00;;;;;;2284764;40;3618;-85
2023/01/13 00:45:25;261907.00;0.87;452.43;0.00;0.00;0.62;;;;;14.20;1.00;;;;;;2264214;61;680;-88
2023/01/13 00:47:53;182922.00;0.61;316.52;0.00;0.00;0.62;;;;;14.30;1.00;;;;;;2264247;61;1103;-87
2023/01/13 00:50:20;304954.00;1.02;526.44;0.00;0.00;0.62;;;;;14.30;1.00;;;;;;2264074;61;927;-87
2023/01/13 00:52:47;198541.00;0.66;343.41;0.00;0.00;0.62;;;;;14.20;1.00;;;;;;2264074;61;1994;-89
2023/01/13 00:55:14;287898.00;0.96;497.12;0.00;0.00;0.62;;;;;14.10;1.00;;;;;;2264157;61;1547;-88
2023/01/13 00:57:41;267746.00;0.89;462.47;0.00;0.00;0.62;;;;;14.20;1.00;;;;;;2264344;61;916;-86
2023/01/13 01:00:10;262128.00;0.87;452.81;0.00;0.00;0.62;;;;;14.30;1.00;;;;;;2274821;56;3739;-86
2023/01/13 01:02:37;364850.00;1.22;629.38;0.00;0.00;0.62;;;;;14.20;1.00;;;;;;2277468;40;3578;-88
2023/01/13 01:05:06;361255.00;1.20;623.21;0.00;0.00;0.62;;;;;14.40;1.00;;;;;;2274171;56;3855;-88
2023/01/13 01:07:33;126085.00;0.42;218.58;0.00;0.00;0.62;;;;;14.40;1.00;;;;;;2268162;61;1070;-88
2023/01/13 01:10:00;306632.00;1.02;529.32;0.00;0.00;0.62;;;;;14.40;1.00;;;;;;2268065;61;1084;-88
2023/01/13 01:12:27;477863.00;1.59;823.72;0.00;0.00;0.62;;;;;14.30;1.00;;;;;;2268615;40;3674;-86
2023/01/13 01:14:56;255415.00;0.85;441.26;0.00;0.00;0.62;;;;;14.20;1.00;;;;;;2264235;61;1565;-87
2023/01/13 01:17:23;261584.00;0.87;451.87;0.00;0.00;0.62;;;;;13.90;1.00;;;;;;2264030;61;1063;-86
2023/01/13 01:19:50;184402.00;0.61;319.07;0.00;0.00;0.62;;;;;13.90;1.00;;;;;;2264141;61;1767;-86
2023/01/13 01:22:18;239356.00;0.80;413.64;0.00;0.00;0.62;;;;;13.80;1.00;;;;;;2263932;61;1457;-87
2023/01/13 01:24:47;590456.00;1.97;1017.74;0.00;0.00;0.62;;;;;14.20;1.00;;;;;;2264114;61;1713;-87
2023/01/13 01:27:14;119520080.00;398.40;69162736.00;20069.00;0.07;35.39;;;;;14.20;1.00;;;;;;2269907;55;3844;-86
2023/01/13 01:29:41;554259.00;1.85;955.30;13095.00;0.04;23.31;;;;;14.20;1.00;;;;;;2268237;61;1026;-87
2023/01/13 01:32:08;446818.00;1.49;770.31;0.00;0.00;0.62;;;;;14.10;1.00;;;;;;2267092;61;1986;-87
2023/01/13 01:37:03;1466844.00;4.89;2580.89;23836.00;0.08;41.91;;;;;14.30;1.00;;;;;;2265234;61;1425;-87
2023/01/13 01:39:31;946978.00;3.16;1638.78;36049.00;0.12;63.05;;;;;14.20;1.00;;;;;;2264106;61;1652;-87
2023/01/13 01:45:12;292091.00;0.97;504.32;0.00;0.00;0.62;;;;;14.00;1.00;;;;;;2264071;61;683;-87
2023/01/13 01:50:09;120083392.00;400.28;70146176.00;0.00;0.00;0.62;;;;;13.70;1.00;;;;;;2273061;56;3645;-86
2023/01/13 01:52:40;302379.00;1.01;522.01;0.00;0.00;0.62;;;;;13.80;1.00;;;;;;2266171;61;1915;-86
2023/01/13 01:55:14;503324.00;1.68;867.55;10538.00;0.04;18.88;;;;;14.10;1.00;;;;;;2263915;61;1415;-87
2023/01/13 01:57:49;347329.00;1.16;599.27;0.00;0.00;0.62;;;;;14.20;1.00;;;;;;2263932;61;969;-86
2023/01/13 02:00:16;220365.00;0.73;380.97;0.00;0.00;0.62;;;;;14.20;1.00;;;;;;2288185;40;3773;-87
2023/01/13 02:02:47;479121.00;1.60;825.88;0.00;0.00;0.62;;;;;14.30;1.00;;;;;;2337762;41;3618;-88
2023/01/13 02:05:14;163232.00;0.54;282.61;0.00;0.00;0.62;;;;;14.30;1.00;;;;;;2263924;61;1105;-88
2023/01/13 02:07:45;387823.00;1.29;668.87;0.00;0.00;0.62;;;;;14.10;1.00;;;;;;2273872;55;3751;-86
2023/01/13 02:10:17;466201.00;1.55;803.65;15691.00;0.05;27.81;;;;;14.20;1.00;;;;;;2267779;61;986;-87
2023/01/13 02:12:46;495520.00;1.65;854.11;0.00;0.00;0.62;;;;;14.20;1.00;;;;;;2265804;61;1923;-89
2023/01/13 02:15:16;738398.00;2.46;1273.89;43407.00;0.14;75.78;;;;;14.20;1.00;;;;;;2263859;61;1050;-87
2023/01/13 02:18:01;746813.00;2.49;1288.52;68722.00;0.23;119.55;;;;;14.40;1.00;;;;;;2263833;61;1053;-89
2023/01/13 02:21:13;791757.00;2.64;1366.75;40845.00;0.14;71.35;;;;;14.50;1.00;;;;;;2264078;61;1660;-87
2023/01/13 02:27:43;369088.00;1.23;636.67;0.00;0.00;0.62;;;;;14.20;1.00;;;;;;2262803;61;1231;-86
2023/01/13 02:33:29;747299.00;2.49;1289.36;140520.00;0.47;243.47;;;;;14.20;1.00;;;;;;2264387;61;1983;-87
2023/01/13 02:36:05;231078.00;0.77;399.40;39778.00;0.13;69.50;;;;;14.50;1.00;;;;;;2268036;40;3597;-88
2023/01/13 02:38:37;414505.00;1.38;714.74;0.00;0.00;0.62;;;;;14.30;1.00;;;;;;2281791;40;3772;-87
2023/01/13 02:44:09;356560.00;1.19;615.14;0.00;0.00;0.62;;;;;14.30;1.00;;;;;;2264529;61;1285;-88
2023/01/13 02:46:45;506759.00;1.69;873.46;0.00;0.00;0.62;;;;;14.20;1.00;;;;;;2280549;40;3606;-87
2023/01/13 02:49:20;241998.00;0.81;418.19;0.00;0.00;0.62;;;;;14.30;1.00;;;;;;2268501;61;1572;-87
2023/01/13 02:51:51;242573.00;0.81;419.18;0.00;0.00;0.62;;;;;14.40;1.00;;;;;;2268203;61;1972;-88
2023/01/13 02:54:24;174752.00;0.58;302.45;0.00;0.00;0.62;;;;;14.40;1.00;;;;;;2264633;61;1040;-87
2023/01/13 02:56:54;289277.00;0.96;499.49;0.00;0.00;0.62;;;;;14.20;1.00;;;;;;2264702;61;1692;-86
2023/01/13 02:59:25;283948.00;0.95;490.33;0.00;0.00;0.62;;;;;13.90;1.00;;;;;;2264499;61;1695;-87
2023/01/13 03:01:54;265462.00;0.88;458.54;0.00;0.00;0.62;;;;;14.00;1.00;;;;;;2270347;40;3649;-85
2023/01/13 03:04:46;830453.00;2.77;1434.29;0.00;0.00;0.62;;;;;14.00;1.00;;;;;;2270286;61;1375;-87
2023/01/13 03:07:28;324322.00;1.08;559.73;0.00;0.00;0.62;;;;;13.90;1.00;;;;;;2268442;61;1039;-87
2023/01/13 03:10:06;310475.00;1.03;535.93;0.00;0.00;0.62;;;;;14.00;1.00;;;;;;2268202;61;1040;-87
2023/01/13 03:12:43;379127.00;1.26;653.92;0.00;0.00;0.62;;;;;13.90;1.00;;;;;;2266878;61;2001;-87
2023/01/13 03:15:23;420639.00;1.40;725.29;37659.00;0.13;65.84;;;;;14.10;1.00;;;;;;2264649;61;1598;-87
2023/01/13 03:18:00;321641.00;1.07;555.12;0.00;0.00;0.62;;;;;14.10;1.00;;;;;;2264387;61;1133;-87
2023/01/13 03:23:07;678581.00;2.26;1170.11;0.00;0.00;0.62;;;;;14.20;1.00;;;;;;2273755;56;3590;-87
2023/01/13 03:25:40;227601.00;0.76;393.42;0.00;0.00;0.62;;;;;14.20;1.00;;;;;;2264391;61;1050;-87
2023/01/13 03:28:10;275209.00;0.92;475.30;0.00;0.00;0.62;;;;;14.20;1.00;;;;;;2264580;61;1020;-87
2023/01/13 03:30:44;323779.00;1.08;558.79;0.00;0.00;0.62;;;;;14.00;1.00;;;;;;2264467;61;1035;-87
2023/01/13 03:33:17;123940208.00;413.13;77131216.00;0.00;0.00;0.62;;;;;14.00;1.00;;;;;;2264218;61;2005;-86
2023/01/13 03:35:48;327771.00;1.09;565.65;0.00;0.00;0.62;;;;;14.20;1.00;;;;;;2264347;61;1114;-88
2023/01/13 03:38:21;252892.00;0.84;436.92;0.00;0.00;0.62;;;;;14.20;1.00;;;;;;2264204;61;1377;-86
2023/01/13 03:40:51;311343.00;1.04;537.42;0.00;0.00;0.62;;;;;13.80;1.00;;;;;;2264268;61;937;-86
2023/01/13 03:46:18;302933.00;1.01;522.96;0.00;0.00;0.62;;;;;14.10;1.00;;;;;;2264460;61;632;-86
2023/01/13 03:48:51;271442.00;0.90;468.82;0.00;0.00;0.62;;;;;14.10;1.00;;;;;;2320603;41;3709;-86
2023/01/13 03:51:22;159514.00;0.53;276.20;0.00;0.00;0.62;;;;;13.90;1.00;;;;;;2268325;61;1019;-86
2023/01/13 03:53:54;379170.00;1.26;654.00;0.00;0.00;0.62;;;;;13.60;1.00;;;;;;2264452;61;2011;-87
2023/01/13 03:56:27;239591.00;0.80;414.05;0.00;0.00;0.62;;;;;13.50;1.00;;;;;;2264433;61;1101;-86
2023/01/13 03:58:56;312445.00;1.04;539.31;0.00;0.00;0.62;;;;;13.50;1.00;;;;;;2264359;61;1997;-85
2023/01/13 04:01:29;254453.00;0.85;439.61;0.00;0.00;0.62;;;;;13.20;1.00;;;;;;2264321;61;1059;-86
2023/01/13 04:04:03;350591.00;1.17;604.88;0.00;0.00;0.62;;;;;13.20;1.00;;;;;;2264228;61;1486;-85
2023/01/13 04:06:38;264137.00;0.88;456.26;0.00;0.00;0.62;;;;;13.30;1.00;;;;;;2264478;61;866;-86
2023/01/13 04:09:14;320776.00;1.07;553.63;0.00;0.00;0.62;;;;;13.40;1.00;;;;;;2264433;61;1001;-86
2023/01/13 04:11:47;309013.00;1.03;533.41;0.00;0.00;0.62;;;;;13.60;1.00;;;;;;2264157;61;1400;-87
2023/01/13 04:14:19;130284.00;0.43;225.82;0.00;0.00;0.62;;;;;13.70;1.00;;;;;;2264445;61;1924;-86
2023/01/13 04:16:47;188268.00;0.63;325.73;0.00;0.00;0.62;;;;;13.60;1.00;;;;;;2264386;61;946;-88
2023/01/13 04:19:15;477094.00;1.59;822.40;0.00;0.00;0.62;;;;;13.80;1.00;;;;;;2264163;61;1064;-86
2023/01/13 04:21:42;341822.00;1.14;589.81;0.00;0.00;0.62;;;;;13.90;1.00;;;;;;2279198;41;3883;-88
2023/01/13 04:24:10;117392896.00;391.31;65532080.00;0.00;0.00;0.62;;;;;14.00;1.00;;;;;;2264289;61;990;-87
2023/01/13 04:26:36;556764.00;1.86;959.62;25204.00;0.08;44.28;;;;;14.30;1.00;;;;;;2264125;61;1030;-86
2023/01/13 04:29:04;536871.00;1.79;925.33;55826.00;0.19;97.26;;;;;14.10;1.00;;;;;;2264227;61;980;-88
2023/01/13 04:33:58;1308135.00;4.36;2287.00;80042.00;0.27;139.11;;;;;14.00;1.00;;;;;;2265997;61;1915;-87
2023/01/13 04:36:27;1021389.00;3.40;1770.39;41373.00;0.14;72.26;;;;;14.00;1.00;;;;;;2264338;61;1164;-86
2023/01/13 04:38:55;1282520.00;4.28;2240.15;67798.00;0.23;117.96;;;;;14.00;1.00;;;;;;2264315;61;1017;-84
2023/01/13 04:41:22;1269549.00;4.23;2216.48;86266.00;0.29;149.86;;;;;13.90;1.00;;;;;;2264280;61;1125;-87
2023/01/13 04:43:49;1026789.00;3.42;1779.98;67318.00;0.22;117.13;;;;;13.90;1.00;;;;;;2264172;61;1277;-87
2023/01/13 04:46:16;651057.00;2.17;1122.47;121159.00;0.40;210.08;;;;;13.80;1.00;;;;;;2264213;61;990;-87
2023/01/13 04:48:43;418081.00;1.39;720.89;90492.00;0.30;157.16;;;;;13.60;1.00;;;;;;2264174;61;936;-87
2023/01/13 04:51:17;678935.00;2.26;1170.73;90929.00;0.30;157.91;;;;;13.40;1.00;;;;;;2264174;61;987;-87
2023/01/13 04:53:45;571662.00;1.91;985.31;96882.00;0.32;168.19;;;;;13.50;1.00;;;;;;2263945;61;1998;-87
2023/01/13 04:56:12;569886.00;1.90;982.25;81986.00;0.27;142.47;;;;;13.40;1.00;;;;;;2264168;61;1017;-87
2023/01/13 04:58:44;574667.00;1.92;990.50;101760.00;0.34;176.61;;;;;13.30;1.00;;;;;;2264037;61;1100;-87
2023/01/13 05:01:11;637841.00;2.13;1099.61;89393.00;0.30;155.26;;;;;13.40;1.00;;;;;;2264079;61;999;-87
2023/01/13 05:03:38;498089.00;1.66;858.53;110801.00;0.37;192.21;;;;;13.50;1.00;;;;;;2264105;61;1526;-86
2023/01/13 05:06:05;475949.00;1.59;820.43;88985.00;0.30;154.56;;;;;13.60;1.00;;;;;;2264048;61;1161;-86
2023/01/13 05:08:34;596654.00;1.99;1028.44;97308.00;0.32;168.92;;;;;13.80;1.00;;;;;;2264197;61;922;-88
2023/01/13 05:16:58;531501.00;1.77;916.08;79020.00;0.26;137.34;;;;;13.80;1.00;;;;;;2263968;61;1584;-88
2023/01/13 05:19:23;1214122.00;4.05;2115.77;150049.00;0.50;259.89;;;;;13.90;1.00;;;;;;2264610;61;1707;-87
2023/01/13 05:27:20;1070425.00;3.57;1857.61;13986.00;0.05;24.85;;;;;13.30;1.00;;;;;;2264187;61;930;-86
2023/01/13 05:29:50;617964.00;2.06;1065.25;98757.00;0.33;171.43;;;;;13.50;1.00;;;;;;2264093;61;1734;-86
2023/01/13 05:32:17;488615.00;1.63;842.22;90725.00;0.30;157.56;;;;;13.30;1.00;;;;;;2264042;61;1339;-86
2023/01/13 05:34:44;491514.00;1.64;847.22;93318.00;0.31;162.04;;;;;13.40;1.00;;;;;;2264105;61;2002;-86
2023/01/13 05:37:12;480410.00;1.60;828.10;53401.00;0.18;93.07;;;;;13.40;1.00;;;;;;2263897;61;1104;-87
2023/01/13 05:47:38;928521.00;3.10;1606.27;89304.00;0.30;155.11;;;;;13.80;1.00;;;;;;2265952;61;1202;-88
2023/01/13 05:50:06;542407.00;1.81;934.87;89040.00;0.30;154.65;;;;;13.90;1.00;;;;;;2263879;61;1074;-87
2023/01/13 05:52:33;616695.00;2.06;1063.06;93688.00;0.31;162.68;;;;;13.90;1.00;;;;;;2263801;61;1930;-86
2023/01/13 05:55:00;527830.00;1.76;909.75;101616.00;0.34;176.36;;;;;13.70;1.00;;;;;;2263837;61;1045;-86
2023/01/13 05:57:28;272576.00;0.91;470.77;0.00;0.00;0.62;;;;;13.80;1.00;;;;;;2264116;61;1064;-86
2023/01/13 05:59:55;457706.00;1.53;789.04;0.00;0.00;0.62;;;;;13.40;1.00;;;;;;2302561;40;3613;-85
2023/01/13 06:02:23;296309.00;0.99;511.58;0.00;0.00;0.62;;;;;13.30;1.00;;;;;;2267215;61;1172;-87
2023/01/13 06:04:50;296665.00;0.99;512.19;0.00;0.00;0.62;;;;;13.50;1.00;;;;;;2263668;61;1005;-86
2023/01/13 06:07:18;338672.00;1.13;584.39;0.00;0.00;0.62;;;;;13.50;1.00;;;;;;2263721;61;1554;-87
2023/01/13 06:09:45;505436.00;1.68;871.18;0.00;0.00;0.62;;;;;13.20;1.00;;;;;;2263772;61;1930;-86
2023/01/13 06:12:14;349026.00;1.16;602.19;0.00;0.00;0.62;;;;;13.00;1.00;;;;;;2264018;61;1308;-86
2023/01/13 06:14:42;393228.00;1.31;678.16;0.00;0.00;0.62;;;;;13.20;1.00;;;;;;2263968;61;1997;-87
2023/01/13 06:17:11;400958.00;1.34;691.45;0.00;0.00;0.62;;;;;13.40;1.00;;;;;;2263633;61;1792;-86
2023/01/13 06:19:39;297804.00;0.99;514.15;0.00;0.00;0.62;;;;;13.50;1.00;;;;;;2263614;61;1686;-87
2023/01/13 06:22:13;283637.00;0.95;489.79;0.00;0.00;0.62;;;;;13.30;1.00;;;;;;2263615;61;1517;-87
2023/01/13 06:24:40;379043.00;1.26;653.78;0.00;0.00;0.62;;;;;13.40;1.00;;;;;;2263724;61;1051;-87
2023/01/13 06:27:10;376671.00;1.26;649.70;0.00;0.00;0.62;;;;;13.60;1.00;;;;;;2263802;61;1446;-88
2023/01/13 06:29:37;396322.00;1.32;683.48;0.00;0.00;0.62;;;;;13.80;1.00;;;;;;2263912;61;1594;-87
2023/01/13 06:32:12;283510.00;0.95;489.57;0.00;0.00;0.62;;;;;13.60;1.00;;;;;;2263955;61;1351;-87
2023/01/13 06:34:44;328022.00;1.09;566.09;0.00;0.00;0.62;;;;;13.40;1.00;;;;;;2263718;61;1932;-86
2023/01/13 06:37:14;358829.00;1.20;619.04;0.00;0.00;0.62;;;;;13.20;1.00;;;;;;2263644;61;1767;-87
2023/01/13 06:39:42;359792.00;1.20;620.69;0.00;0.00;0.62;;;;;13.30;1.00;;;;;;2263695;61;1033;-89
2023/01/13 06:44:57;334010.00;1.11;576.38;0.00;0.00;0.62;;;;;13.30;1.00;;;;;;2331479;40;3738;-85
2023/01/13 06:47:25;557718.00;1.86;961.27;97622.00;0.33;169.47;;;;;13.00;1.00;;;;;;2267782;61;1031;-84
2023/01/13 06:49:53;333258.00;1.11;575.09;0.00;0.00;0.62;;;;;12.90;1.00;;;;;;2267642;61;1760;-85
2023/01/13 06:52:20;509843.00;1.70;878.77;0.00;0.00;0.62;;;;;13.30;1.00;;;;;;2266404;61;1576;-87
2023/01/13 06:54:47;117750944.00;392.50;66134060.00;0.00;0.00;0.62;;;;;13.30;1.00;;;;;;2263741;61;2010;-86
2023/01/13 06:57:14;407310.00;1.36;702.37;0.00;0.00;0.62;;;;;13.40;1.00;;;;;;2263765;61;1735;-87
2023/01/13 06:59:41;586753.00;1.96;1011.35;0.00;0.00;0.62;;;;;13.70;1.00;;;;;;2263607;61;1040;-86
2023/01/13 07:02:08;438621.00;1.46;756.21;0.00;0.00;0.62;;;;;13.90;1.00;;;;;;2263754;61;1398;-86
2023/01/13 07:04:36;471382.00;1.57;812.57;0.00;0.00;0.62;;;;;13.80;1.00;;;;;;2263757;61;1594;-87
2023/01/13 07:07:03;424746.00;1.42;732.35;0.00;0.00;0.62;;;;;13.90;1.00;;;;;;2274906;40;3590;-86
2023/01/13 07:09:30;374264.00;1.25;645.57;0.00;0.00;0.62;;;;;13.80;1.00;;;;;;2267673;61;1610;-87
2023/01/13 07:11:57;465519.00;1.55;802.48;0.00;0.00;0.62;;;;;13.70;1.00;;;;;;2286542;56;3779;-86
2023/01/13 07:17:09;316643.00;1.06;546.53;0.00;0.00;0.62;;;;;13.90;1.00;;;;;;2264209;61;691;-87
2023/01/13 07:22:09;522937.00;1.74;901.32;0.00;0.00;0.62;;;;;13.80;1.00;;;;;;2266796;61;1334;-87
2023/01/13 07:24:43;406357.00;1.35;700.73;0.00;0.00;0.62;;;;;13.50;1.00;;;;;;2275339;56;3802;-88
2023/01/13 07:27:10;272406.00;0.91;470.48;0.00;0.00;0.62;;;;;13.30;1.00;;;;;;2268522;61;1113;-88
2023/01/13 07:29:37;552007.00;1.84;951.42;0.00;0.00;0.62;;;;;13.60;1.00;;;;;;2284501;40;3638;-86
2023/01/13 07:32:05;157943.00;0.53;273.50;0.00;0.00;0.62;;;;;13.40;1.00;;;;;;2268384;61;1183;-86
2023/01/13 07:34:32;593774.00;1.98;1023.47;0.00;0.00;0.62;;;;;13.30;1.00;;;;;;2264362;61;1916;-86
2023/01/13 07:37:02;314957.00;1.05;543.63;0.00;0.00;0.62;;;;;13.30;1.00;;;;;;2264198;61;1040;-87
2023/01/13 07:39:30;341380.00;1.14;589.05;0.00;0.00;0.62;;;;;13.20;1.00;;;;;;2264321;61;1612;-86
2023/01/13 07:44:44;423839.00;1.41;730.79;0.00;0.00;0.62;;;;;13.80;1.00;;;;;;2264287;61;683;-84
2023/01/13 07:47:11;278298.00;0.93;480.61;0.00;0.00;0.62;;;;;13.80;1.00;;;;;;2264215;61;1127;-87
2023/01/13 07:49:38;313988.00;1.05;541.96;0.00;0.00;0.62;;;;;13.90;1.00;;;;;;2294957;56;3735;-86
2023/01/13 07:52:07;165430.00;0.55;286.39;0.00;0.00;0.62;;;;;13.80;1.00;;;;;;2268250;61;1455;-87
2023/01/13 07:54:36;319350.00;1.06;551.18;0.00;0.00;0.62;;;;;13.90;1.00;;;;;;2264249;61;1994;-87
2023/01/13 07:57:05;336312.00;1.12;580.33;0.00;0.00;0.62;;;;;13.70;1.00;;;;;;2286938;56;3787;-87
2023/01/13 07:59:35;353412.00;1.18;609.73;0.00;0.00;0.62;;;;;13.80;1.00;;;;;;2268303;61;1570;-86
2023/01/13 08:02:05;165802.00;0.55;287.04;0.00;0.00;0.62;;;;;13.90;1.00;;;;;;2267563;61;1834;-87
2023/01/13 08:04:33;428295.00;1.43;738.45;0.00;0.00;0.62;;;;;13.80;1.00;;;;;;2264218;61;1474;-87
2023/01/13 08:07:00;329026.00;1.10;567.81;0.00;0.00;0.62;;;;;13.80;1.00;;;;;;2264258;61;1020;-87
2023/01/13 08:09:27;147859.00;0.49;256.12;0.00;0.00;0.62;;;;;13.70;1.00;;;;;;2264319;61;1551;-87
2023/01/13 08:14:37;274445.00;0.91;473.99;0.00;0.00;0.62;;;;;13.80;1.00;;;;;;2264207;61;1908;-86
2023/01/13 08:17:04;340078.00;1.13;586.81;67716.00;0.23;117.81;;;;;13.90;1.00;;;;;;2264485;61;893;-87
2023/01/13 08:19:31;548648.00;1.83;945.63;41237.00;0.14;72.03;;;;;13.90;1.00;;;;;;2264187;61;1488;-87
2023/01/13 08:21:58;798362.00;2.66;1378.27;19416.00;0.06;34.26;;;;;14.00;1.00;;;;;;2264298;61;1593;-86
2023/01/13 08:24:25;764492.00;2.55;1319.27;14090.00;0.05;25.03;;;;;13.50;1.00;;;;;;2264284;61;1079;-86
2023/01/13 08:26:52;835619.00;2.79;1443.32;9196.00;0.03;16.56;;;;;13.50;1.00;;;;;;2276268;56;3815;-87
2023/01/13 08:29:20;632787.00;2.11;1090.87;19564.00;0.07;34.52;;;;;13.60;1.00;;;;;;2268221;61;935;-88
2023/01/13 08:31:47;740525.00;2.47;1277.59;9494.00;0.03;17.07;;;;;13.90;1.00;;;;;;2267992;61;1719;-87
2023/01/13 08:34:14;858835.00;2.86;1483.93;57662.00;0.19;100.43;;;;;13.90;1.00;;;;;;2264345;61;1907;-88
2023/01/13 08:36:44;1695411.00;5.65;3016.51;32502.00;0.11;56.91;;;;;14.00;1.00;;;;;;2285579;56;3709;-87
2023/01/13 08:39:17;785294.00;2.62;1355.49;87111.00;0.29;151.32;;;;;13.90;1.00;;;;;;2268369;61;1555;-87
2023/01/13 08:41:58;356969.00;1.19;615.84;0.00;0.00;0.62;;;;;13.70;1.00;;;;;;2267987;61;1701;-86
2023/01/13 08:44:34;209322.00;0.70;361.97;0.00;0.00;0.62;;;;;13.70;1.00;;;;;;2264122;61;1437;-90
2023/01/13 08:47:04;164803.00;0.55;285.31;0.00;0.00;0.62;;;;;13.60;1.00;;;;;;2264231;61;1445;-88
2023/01/13 08:49:48;189120.00;0.63;327.19;0.00;0.00;0.62;;;;;13.40;1.00;;;;;;2264407;61;1009;-87
2023/01/13 08:52:16;142115.00;0.47;246.22;0.00;0.00;0.62;;;;;13.60;1.00;;;;;;2264116;61;1380;-86
2023/01/13 08:54:46;162170.00;0.54;280.78;0.00;0.00;0.62;;;;;13.70;1.00;;;;;;2264139;61;1990;-88
2023/01/13 08:59:55;608569.00;2.03;1049.02;0.00;0.00;0.62;;;;;13.80;1.00;;;;;;2285976;55;3639;-87
2023/01/13 09:02:28;258333.00;0.86;446.28;0.00;0.00;0.62;;;;;13.60;1.00;;;;;;2322080;56;3771;-87
2023/01/13 09:05:01;266533.00;0.89;460.38;0.00;0.00;0.62;;;;;13.60;1.00;;;;;;2264219;61;1407;-88
2023/01/13 09:07:30;232192.00;0.77;401.32;0.00;0.00;0.62;;;;;13.80;1.00;;;;;;2264191;61;1592;-87
2023/01/13 09:10:03;93057.00;0.31;161.59;0.00;0.00;0.62;;;;;13.80;1.00;;;;;;2264164;61;2223;-89
2023/01/13 09:15:35;170338.00;0.57;294.85;0.00;0.00;0.62;;;;;13.80;1.00;;;;;;2264375;61;1993;-88
2023/01/13 09:18:07;59550.00;0.20;103.70;0.00;0.00;0.62;;;;;13.60;1.00;;;;;;2264165;61;1598;-88
2023/01/13 09:20:36;118658.00;0.40;205.77;0.00;0.00;0.62;;;;;13.60;1.00;;;;;;2264215;61;973;-88
2023/01/13 09:23:07;159570.00;0.53;276.30;0.00;0.00;0.62;;;;;13.40;1.00;;;;;;2264247;61;1292;-86
2023/01/13 09:25:35;199821.00;0.67;345.62;0.00;0.00;0.62;;;;;13.50;1.00;;;;;;2264063;61;1418;-88
2023/01/13 09:28:03;129907.00;0.43;225.17;0.00;0.00;0.62;;;;;13.40;1.00;;;;;;2264097;61;926;-87
2023/01/13 09:30:35;78480.00;0.26;136.41;0.00;0.00;0.62;;;;;13.50;1.00;;;;;;2264200;61;1470;-87
2023/01/13 09:35:46;104784.00;0.35;181.83;0.00;0.00;0.62;;;;;13.40;1.00;;;;;;2264112;61;1994;-87
2023/01/13 09:38:16;191987.00;0.64;332.13;0.00;0.00;0.62;;;;;13.40;1.00;;;;;;2263917;61;1584;-87
2023/01/13 09:40:43;222559.00;0.74;384.75;0.00;0.00;0.62;;;;;13.30;1.00;;;;;;2263602;61;1545;-87
2023/01/13 09:49:04;167408.00;0.56;289.80;0.00;0.00;0.62;;;;;13.60;1.00;;;;;;2264068;61;1241;-86
2023/01/13 09:51:39;262330.00;0.87;453.16;0.00;0.00;0.62;;;;;13.60;1.00;;;;;;2264077;61;1113;-85
2023/01/13 09:54:17;177826.00;0.59;307.75;0.00;0.00;0.62;;;;;13.40;1.00;;;;;;2263974;61;1924;-86
2023/01/13 09:56:47;216608.00;0.72;374.51;0.00;0.00;0.62;;;;;13.30;1.00;;;;;;2263814;61;1554;-85
2023/01/13 09:59:15;139643.00;0.47;241.96;0.00;0.00;0.62;;;;;13.30;1.00;;;;;;2264078;61;1418;-86
2023/01/13 10:01:53;63062.00;0.21;109.77;0.00;0.00;0.62;;;;;13.50;1.00;;;;;;2264062;61;1373;-88
2023/01/13 10:04:22;138828.00;0.46;240.55;0.00;0.00;0.62;;;;;13.50;1.00;;;;;;2264086;61;1417;-88
2023/01/13 10:06:56;308975.00;1.03;533.35;0.00;0.00;0.62;;;;;13.60;1.00;;;;;;2264000;61;1274;-88
2023/01/13 10:14:34;783471.00;2.61;1352.31;0.00;0.00;0.62;;;;;12.80;1.00;;;;;;2269342;61;1957;-87
2023/01/13 10:17:21;234961.00;0.78;406.08;0.00;0.00;0.62;;;;;12.90;1.00;;;;;;2267756;61;1398;-88
2023/01/13 10:22:36;816088.00;2.72;1409.20;0.00;0.00;0.62;;;;;13.00;1.00;;;;;;2265376;61;1433;-89
2023/01/13 10:25:34;336973.00;1.12;581.47;0.00;0.00;0.62;;;;;13.40;1.00;;;;;;2290124;56;3820;-89
2023/01/13 10:28:13;305025.00;1.02;526.56;0.00;0.00;0.62;;;;;13.60;1.00;;;;;;2267682;61;1596;-88
2023/01/13 10:30:44;201894.00;0.67;349.18;0.00;0.00;0.62;;;;;13.70;1.00;;;;;;2267872;61;1468;-88
2023/01/13 10:33:20;415771.00;1.39;716.92;0.00;0.00;0.62;;;;;13.80;1.00;;;;;;2265140;61;1360;-89
2023/01/13 10:35:53;600786.00;2.00;1035.58;0.00;0.00;0.62;;;;;14.20;1.00;;;;;;2263632;61;2017;-86
2023/01/13 10:40:56;543216.00;1.81;936.27;0.00;0.00;0.62;;;;;14.10;1.00;;;;;;2284913;40;3658;-87
2023/01/13 10:46:01;429149.00;1.43;739.92;0.00;0.00;0.62;;;;;14.60;1.00;;;;;;2265761;61;1441;-88
2023/01/13 10:48:57;315441.00;1.05;544.46;0.00;0.00;0.62;;;;;14.50;1.00;;;;;;2263803;61;1443;-89
2023/01/13 10:54:22;640894.00;2.14;1104.89;0.00;0.00;0.62;;;;;14.60;1.00;;;;;;2266460;61;1908;-89
2023/01/13 10:59:26;627693.00;2.09;1082.06;0.00;0.00;0.62;;;;;15.00;1.00;;;;;;2266536;61;1401;-89
2023/01/13 11:04:49;438223.00;1.46;755.53;0.00;0.00;0.62;;;;;15.00;1.00;;;;;;2270354;61;1443;-90
2023/01/13 11:12:39;2017307.00;6.72;3659.92;230927.00;0.77;399.14;;;;;13.70;1.00;;;;;;2266299;61;1345;-88
2023/01/13 11:17:45;1599586.00;5.33;2831.95;49142.00;0.16;85.70;;;;;12.30;1.00;;;;;;2266557;61;1330;-87
2023/01/13 11:20:28;696045.00;2.32;1200.38;60158.00;0.20;104.75;;;;;11.30;1.00;;;;;;2265251;61;1134;-89
2023/01/13 11:22:58;500011.00;1.67;861.84;13493.00;0.04;24.00;;;;;11.20;1.00;;;;;;2265163;61;1350;-88
2023/01/13 11:25:34;864238.00;2.88;1493.39;70394.00;0.23;122.44;;;;;10.80;1.00;;;;;;2265170;61;1751;-89
2023/01/13 11:30:39;1395318.00;4.65;2447.64;70123.00;0.23;121.97;;;;;11.00;1.00;;;;;;2303549;40;3683;-87
2023/01/13 11:48:05;771263.00;2.57;1331.05;0.00;0.00;0.62;;;;;10.90;1.00;;;;;;2290909;40;3443;-86
2023/01/13 11:53:29;560155.00;1.87;965.47;0.00;0.00;0.62;;;;;11.30;1.00;;;;;;2310204;41;3455;-87
2023/01/13 12:03:39;1823329.00;6.08;3267.65;83501.00;0.28;145.08;;;;;10.40;1.00;;;;;;1956853;56;3603;-89
2023/01/13 12:55:14;1425571.00;4.75;2503.83;52983.00;0.18;92.34;;;;;11.40;1.00;;;;;;2008758;60;2853;-91
2023/01/13 13:00:36;1388843.00;4.63;2435.65;62100.00;0.21;108.11;;;;;11.10;1.00;;;;;;2266017;61;1397;-87
2023/01/13 13:08:31;977721.00;3.26;1693.05;0.00;0.00;0.62;;;;;11.20;1.00;;;;;;2265671;61;1271;-89
2023/01/13 13:24:10;792670.00;2.64;1368.34;0.00;0.00;0.62;;;;;11.70;1.00;;;;;;2285840;40;3510;-88
2023/01/13 13:29:37;1804434.00;6.01;3230.19;153420.00;0.51;265.70;;;;;12.10;1.00;;;;;;2295913;41;3509;-86
2023/01/13 13:32:38;1796478.00;5.99;3214.46;131468.00;0.44;227.86;;;;;12.40;1.00;;;;;;2260565;61;1438;-87